createdAt,value
2022-08-26T00:01:13.811Z,78660.75
2022-08-26T00:03:43.535Z,78652.84
2022-08-26T00:06:14.051Z,78669.03
2022-08-26T00:08:50.967Z,78657.69
2022-08-26T00:11:26.418Z,78668.75
2022-08-26T00:13:58.422Z,78655.63
2022-08-26T00:16:29.913Z,78661.59
2022-08-26T00:19:00.790Z,78664.22
2022-08-26T00:21:30.147Z,78662.06
2022-08-26T00:24:03.157Z,78650.50
2022-08-26T00:26:36.175Z,78668.94
2022-08-26T00:29:09.541Z,78662.91
2022-08-26T00:31:45.523Z,78671.81
2022-08-26T00:34:35.442Z,78677.03
2022-08-26T00:37:14.524Z,78682.59
2022-08-26T00:39:51.235Z,78678.50
2022-08-26T00:42:25.346Z,78683.16
2022-08-26T00:44:59.556Z,78679.25
2022-08-26T00:48:03.047Z,78680.53
2022-08-26T00:50:41.202Z,78677.19
2022-08-26T00:53:27.973Z,78673.13
2022-08-26T00:56:25.795Z,78669.13
2022-08-26T00:59:03.005Z,78675.81
2022-08-26T01:01:41.456Z,78681.94
2022-08-26T01:04:23.700Z,78685.38
2022-08-26T01:06:56.882Z,78672.81
2022-08-26T01:09:27.647Z,78677.94
2022-08-26T01:12:00.818Z,78671.41
2022-08-26T01:14:37.993Z,78695.16
2022-08-26T01:17:10.431Z,78658.63
2022-08-26T01:19:46.080Z,78695.97
2022-08-26T01:22:26.659Z,78691.56
2022-08-26T01:25:05.897Z,78698.34
2022-08-26T01:27:38.068Z,78710.31
2022-08-26T01:30:08.836Z,78716.84
2022-08-26T01:32:41.624Z,78717.50
2022-08-26T01:35:12.310Z,78727.47
2022-08-26T01:37:43.097Z,78722.06
2022-08-26T01:40:20.414Z,78718.56
2022-08-26T01:42:55.001Z,78720.31
2022-08-26T01:45:32.277Z,78723.41
2022-08-26T01:48:06.070Z,78726.59
2022-08-26T01:50:38.756Z,78730.69
2022-08-26T01:53:12.644Z,78724.50
2022-08-26T01:55:48.272Z,78730.34
2022-08-26T01:58:35.849Z,78741.16
2022-08-26T02:01:06.396Z,78731.84
2022-08-26T02:03:38.749Z,78731.59
2022-08-26T02:06:12.272Z,78729.94
2022-08-26T02:08:57.569Z,78741.22
2022-08-26T02:11:27.369Z,78744.50
2022-08-26T02:14:02.873Z,78736.00
2022-08-26T02:16:42.441Z,78737.06
2022-08-26T02:19:18.413Z,78740.13
2022-08-26T02:21:54.213Z,78728.13
2022-08-26T02:24:28.736Z,78740.91
2022-08-26T02:26:59.592Z,78753.50
2022-08-26T02:29:39.614Z,78746.50
2022-08-26T02:32:10.985Z,78749.69
2022-08-26T02:34:41.871Z,78745.50
2022-08-26T02:37:13.022Z,78741.13
2022-08-26T02:39:44.096Z,78754.25
2022-08-26T02:42:13.996Z,78755.88
2022-08-26T02:44:44.422Z,78747.09
2022-08-26T02:47:16.715Z,78762.41
2022-08-26T02:49:47.798Z,78764.25
2022-08-26T02:52:18.457Z,78757.38
2022-08-26T02:54:49.533Z,78766.31
2022-08-26T02:57:20.589Z,78771.44
2022-08-26T02:59:52.098Z,78777.03
2022-08-26T03:02:22.711Z,78769.88
2022-08-26T03:04:57.480Z,78763.34
2022-08-26T03:07:31.325Z,78775.75
2022-08-26T03:10:06.950Z,78779.84
2022-08-26T03:12:38.731Z,78781.41
2022-08-26T03:15:17.469Z,78785.72
2022-08-26T03:17:51.052Z,78774.78
2022-08-26T03:20:20.777Z,78775.28
2022-08-26T03:22:52.723Z,78778.72
2022-08-26T03:25:27.041Z,78790.34
2022-08-26T03:27:56.967Z,78788.09
2022-08-26T03:30:44.817Z,78782.34
2022-08-26T03:33:16.892Z,78792.44
2022-08-26T03:35:50.744Z,78797.84
2022-08-26T03:38:28.466Z,78795.28
2022-08-26T03:40:58.397Z,78794.53
2022-08-26T03:43:28.490Z,78794.19
2022-08-26T03:45:58.446Z,78809.28
2022-08-26T03:48:28.082Z,78811.47
2022-08-26T03:50:58.228Z,78804.13
2022-08-26T03:53:28.810Z,78790.22
2022-08-26T03:55:58.984Z,78807.22
2022-08-26T03:58:33.499Z,78815.00
2022-08-26T04:01:03.517Z,78787.13
2022-08-26T04:03:51.422Z,78814.69
2022-08-26T04:06:21.775Z,78801.91
2022-08-26T04:08:51.528Z,78819.22
2022-08-26T04:11:23.425Z,78820.47
2022-08-26T04:13:53.261Z,78813.25
2022-08-26T04:16:23.024Z,78827.63
2022-08-26T04:18:58.428Z,78828.06
2022-08-26T04:21:29.783Z,78826.97
2022-08-26T04:23:59.783Z,78832.22
2022-08-26T04:26:39.468Z,78826.19
2022-08-26T04:29:17.324Z,78839.16
2022-08-26T04:31:49.297Z,78841.16
2022-08-26T04:34:23.672Z,78846.69
2022-08-26T04:36:53.459Z,78826.56
2022-08-26T04:39:23.353Z,78825.19
2022-08-26T04:41:58.042Z,78848.41
2022-08-26T04:44:32.142Z,78845.81
2022-08-26T04:47:02.212Z,78841.63
2022-08-26T04:49:35.367Z,78845.81
2022-08-26T04:52:06.295Z,78852.25
2022-08-26T04:54:37.868Z,78858.47
2022-08-26T04:57:11.646Z,78829.16
2022-08-26T04:59:42.309Z,78845.88
2022-08-26T05:02:12.754Z,78846.97
2022-08-26T05:04:44.884Z,78848.97
2022-08-26T05:07:14.624Z,78858.03
2022-08-26T05:09:47.488Z,78867.59
2022-08-26T05:12:17.881Z,78863.16
2022-08-26T05:14:49.423Z,78867.09
2022-08-26T05:17:19.205Z,78863.66
2022-08-26T05:19:49.497Z,78857.66
2022-08-26T05:22:19.458Z,78859.72
2022-08-26T05:24:51.407Z,78864.53
2022-08-26T05:27:21.000Z,78861.38
2022-08-26T05:29:54.342Z,78855.41
2022-08-26T05:32:24.371Z,78852.63
2022-08-26T05:34:58.596Z,78853.59
2022-08-26T05:37:28.512Z,78844.03
2022-08-26T05:39:57.967Z,78840.34
2022-08-26T05:42:27.741Z,78843.94
2022-08-26T05:44:57.970Z,78853.28
2022-08-26T05:47:28.145Z,78841.84
2022-08-26T05:49:58.096Z,78833.72
2022-08-26T05:52:27.796Z,78840.56
2022-08-26T05:54:57.777Z,78834.03
2022-08-26T05:57:27.080Z,78845.66
2022-08-26T05:59:58.806Z,78843.38
2022-08-26T06:02:29.816Z,78851.72
2022-08-26T06:17:39.546Z,78835.06
2022-08-26T06:20:09.992Z,78837.63
2022-08-26T06:22:57.811Z,78840.44
2022-08-26T06:25:39.427Z,78845.41
2022-08-26T06:28:09.606Z,78847.16
2022-08-26T06:30:43.672Z,78851.19
2022-08-26T06:33:15.067Z,78848.53
2022-08-26T06:35:47.876Z,78835.28
2022-08-26T06:38:52.740Z,78857.41
2022-08-26T06:41:25.659Z,78855.34
2022-08-26T06:43:58.509Z,78839.56
2022-08-26T06:46:29.417Z,78850.34
2022-08-26T06:49:02.319Z,78849.59
2022-08-26T06:51:35.320Z,78858.19
2022-08-26T06:54:08.059Z,78847.72
2022-08-26T06:56:47.896Z,78851.38
2022-08-26T06:59:20.176Z,78831.22
2022-08-26T07:01:50.458Z,78841.41
2022-08-26T07:04:22.457Z,78834.22
2022-08-26T07:06:54.252Z,78832.88
2022-08-26T07:09:27.141Z,78843.75
2022-08-26T07:11:57.998Z,78843.00
2022-08-26T07:14:29.241Z,78832.44
2022-08-26T07:17:00.678Z,78839.44
2022-08-26T07:19:31.749Z,78835.78
2022-08-26T07:22:05.412Z,78833.00
2022-08-26T07:24:38.223Z,78832.78
2022-08-26T07:27:10.907Z,78829.75
2022-08-26T07:29:43.644Z,78825.06
2022-08-26T07:32:15.787Z,78818.56
2022-08-26T07:34:46.909Z,78828.69
2022-08-26T07:37:17.666Z,78824.69
2022-08-26T07:39:53.583Z,78821.28
2022-08-26T07:42:24.091Z,78816.56
2022-08-26T07:44:54.001Z,78814.72
2022-08-26T07:47:26.712Z,78803.00
2022-08-26T07:49:58.952Z,78819.25
2022-08-26T07:52:31.253Z,78815.78
2022-08-26T07:55:03.944Z,78821.75
2022-08-26T07:57:34.090Z,78795.53
2022-08-26T08:00:11.252Z,78811.44
2022-08-26T08:02:48.519Z,78816.19
2022-08-26T08:05:33.353Z,78804.56
2022-08-26T08:08:26.875Z,78811.63
2022-08-26T08:10:57.529Z,78785.72
2022-08-26T08:13:30.462Z,78792.31
2022-08-26T08:16:01.949Z,78795.19
2022-08-26T08:18:35.172Z,78799.31
2022-08-26T08:21:21.264Z,78798.41
2022-08-26T08:23:56.911Z,78794.94
2022-08-26T08:26:29.170Z,78794.19
2022-08-26T08:29:00.104Z,78776.69
2022-08-26T08:34:27.650Z,78772.41
2022-08-26T08:36:58.575Z,78776.44
2022-08-26T08:39:29.613Z,78797.66
2022-08-26T08:42:07.935Z,78787.88
2022-08-26T08:44:43.116Z,78797.59
2022-08-26T08:47:21.620Z,78797.66
2022-08-26T08:49:51.591Z,78805.56
2022-08-26T08:52:32.663Z,78792.63
2022-08-26T09:08:37.271Z,78772.13
2022-08-26T09:11:11.413Z,78773.19
2022-08-26T09:13:45.705Z,78783.00
2022-08-26T09:26:55.336Z,78763.50
2022-08-26T09:29:29.414Z,78766.78
2022-08-26T09:32:25.426Z,78755.75
2022-08-26T09:35:02.263Z,78756.97
2022-08-26T09:40:34.890Z,78757.00
2022-08-26T09:43:13.482Z,78751.78
2022-08-26T09:45:50.046Z,78748.00
2022-08-26T09:48:34.855Z,78752.75
2022-08-26T09:51:33.107Z,78759.72
2022-08-26T09:54:05.648Z,78750.22
2022-08-26T09:56:40.276Z,78748.53
2022-08-26T09:59:13.773Z,78733.66
2022-08-26T10:01:45.292Z,78724.69
2022-08-26T10:04:26.619Z,78743.00
2022-08-26T10:07:09.696Z,78734.97
2022-08-26T10:09:47.753Z,78742.03
2022-08-26T10:12:24.437Z,78730.00
2022-08-26T10:15:22.797Z,78738.34
2022-08-26T10:18:33.859Z,78734.88
2022-08-26T10:21:25.259Z,78745.56
2022-08-26T10:24:00.586Z,78749.44
2022-08-26T10:27:14.498Z,78748.84
2022-08-26T10:29:51.827Z,78733.69
2022-08-26T10:32:46.845Z,78737.91
2022-08-26T10:35:23.148Z,78732.06
2022-08-26T10:38:04.197Z,78735.94
2022-08-26T10:40:52.931Z,78738.81
2022-08-26T10:43:31.958Z,78745.94
2022-08-26T10:46:10.586Z,78745.19
2022-08-26T10:48:59.937Z,78740.25
2022-08-26T10:51:49.378Z,78751.47
2022-08-26T10:54:49.586Z,78734.16
2022-08-26T10:57:45.695Z,78733.97
2022-08-26T11:00:40.186Z,78742.00
2022-08-26T11:03:22.056Z,78741.22
2022-08-26T11:06:20.265Z,78749.50
2022-08-26T11:08:55.413Z,78742.81
2022-08-26T11:11:43.457Z,78741.78
2022-08-26T11:14:29.029Z,78742.06
2022-08-26T11:17:02.277Z,78730.16
2022-08-26T11:19:58.765Z,78736.50
2022-08-26T11:22:36.985Z,78735.63
2022-08-26T11:25:19.596Z,78732.19
2022-08-26T11:27:55.888Z,78732.63
2022-08-26T11:30:26.414Z,78740.75
2022-08-26T11:32:59.059Z,78736.22
2022-08-26T11:35:37.273Z,78751.94
2022-08-26T11:38:21.991Z,78747.31
2022-08-26T11:41:07.340Z,78735.94
2022-08-26T11:43:39.555Z,78741.44
2022-08-26T11:46:12.971Z,78737.78
2022-08-26T11:48:45.601Z,78733.97
2022-08-26T11:51:26.852Z,78727.19
2022-08-26T11:54:32.896Z,78744.34
2022-08-26T11:57:11.715Z,78740.69
2022-08-26T11:59:44.820Z,78740.69
2022-08-26T12:02:20.346Z,78739.59
2022-08-26T12:04:52.731Z,78732.50
2022-08-26T12:07:28.936Z,78734.91
2022-08-26T12:10:05.779Z,78735.38
2022-08-26T12:12:39.902Z,78730.16
2022-08-26T12:15:23.398Z,78731.94
2022-08-26T12:17:54.556Z,78722.09
2022-08-26T12:20:47.074Z,78728.88
2022-08-26T12:23:41.776Z,78732.31
2022-08-26T12:26:32.321Z,78718.16
2022-08-26T12:29:20.350Z,78727.75
2022-08-26T12:32:19.714Z,78720.38
2022-08-26T12:34:50.098Z,78728.41
2022-08-26T12:37:20.245Z,78720.75
2022-08-26T12:39:50.484Z,78720.50
2022-08-26T12:42:24.067Z,78719.94
2022-08-26T12:45:36.869Z,78720.75
2022-08-26T12:48:26.636Z,78714.63
2022-08-26T12:50:56.415Z,78713.41
2022-08-26T12:53:30.059Z,78714.63
2022-08-26T12:56:06.359Z,78718.72
2022-08-26T12:58:40.341Z,78728.69
2022-08-26T13:01:10.236Z,78728.03
2022-08-26T13:03:46.383Z,78718.25
2022-08-26T13:06:18.351Z,78720.47
2022-08-26T13:08:55.497Z,78714.53
2022-08-26T13:11:33.923Z,78716.28
2022-08-26T13:14:07.859Z,78710.25
2022-08-26T13:16:39.591Z,78712.50
2022-08-26T13:19:15.368Z,78701.00
2022-08-26T13:21:49.062Z,78717.69
2022-08-26T13:24:27.755Z,78714.63
2022-08-26T13:26:57.720Z,78704.84
2022-08-26T13:29:27.201Z,78707.72
2022-08-26T13:31:59.646Z,78705.78
2022-08-26T13:34:29.761Z,78715.56
2022-08-26T13:37:00.852Z,78708.47
2022-08-26T13:39:30.562Z,78691.88
2022-08-26T13:42:01.620Z,78710.25
2022-08-26T13:44:31.546Z,78714.25
2022-08-26T13:47:03.995Z,78706.31
2022-08-26T13:49:34.331Z,78696.16
2022-08-26T13:52:05.938Z,78695.69
2022-08-26T13:54:36.135Z,78693.56
2022-08-26T13:57:07.380Z,78693.25
2022-08-26T13:59:37.374Z,78690.56
2022-08-26T14:02:09.279Z,78702.75
2022-08-26T14:04:39.801Z,78693.41
2022-08-26T14:07:09.942Z,78678.50
2022-08-26T14:09:39.478Z,78710.41
2022-08-26T14:12:09.331Z,78699.50
2022-08-26T14:14:39.538Z,78694.84
2022-08-26T14:17:09.299Z,78711.19
2022-08-26T14:19:39.531Z,78704.75
2022-08-26T14:22:09.338Z,78705.03
2022-08-26T14:24:38.874Z,78711.88
2022-08-26T14:27:10.718Z,78704.22
2022-08-26T14:29:42.602Z,78710.84
2022-08-26T14:32:26.144Z,78715.78
2022-08-26T14:34:56.900Z,78714.63
2022-08-26T14:37:27.694Z,78703.59
2022-08-26T14:39:58.122Z,78709.50
2022-08-26T14:42:32.015Z,78708.19
2022-08-26T14:45:05.861Z,78717.66
2022-08-26T14:47:35.481Z,78705.91
2022-08-26T14:50:05.946Z,78705.34
2022-08-26T14:52:56.219Z,78702.81
2022-08-26T14:55:26.165Z,78711.53
2022-08-26T14:58:00.823Z,78709.03
2022-08-26T15:00:32.619Z,78704.13
2022-08-26T15:03:02.574Z,78712.47
2022-08-26T15:05:32.884Z,78702.41
2022-08-26T15:08:05.934Z,78695.91
2022-08-26T15:10:35.881Z,78711.06
2022-08-26T15:13:05.978Z,78688.69
2022-08-26T15:15:36.031Z,78715.63
2022-08-26T15:18:07.549Z,78702.41
2022-08-26T15:20:37.995Z,78683.50
2022-08-26T15:23:09.848Z,78693.94
2022-08-26T15:25:40.017Z,78684.47
2022-08-26T15:28:09.401Z,78712.69
2022-08-26T15:30:39.000Z,78719.97
2022-08-26T15:33:14.933Z,78720.22
2022-08-26T15:35:45.957Z,78713.19
2022-08-26T15:38:15.771Z,78705.84
2022-08-26T15:40:46.001Z,78701.19
2022-08-26T15:43:28.427Z,78710.41
2022-08-26T15:45:59.238Z,78707.72
2022-08-26T15:48:29.653Z,78709.66
2022-08-26T15:51:02.663Z,78717.84
2022-08-26T15:53:34.700Z,78713.84
2022-08-26T15:56:05.375Z,78717.19
2022-08-26T15:58:35.530Z,78696.72
2022-08-26T16:01:06.077Z,78699.78
2022-08-26T16:03:35.763Z,78688.03
2022-08-26T16:07:04.285Z,78701.75
2022-08-26T16:09:52.016Z,78694.34
2022-08-26T16:12:24.592Z,78698.34
2022-08-26T16:14:55.251Z,78699.16
2022-08-26T16:17:26.117Z,78698.06
2022-08-26T16:19:56.065Z,78695.31
2022-08-26T16:22:26.151Z,78706.22
2022-08-26T16:24:59.851Z,78708.91
2022-08-26T16:27:29.793Z,78704.44
2022-08-26T16:29:59.363Z,78704.44
2022-08-26T16:32:31.339Z,78690.81
2022-08-26T16:35:04.321Z,78711.19
2022-08-26T16:37:36.503Z,78701.25
2022-08-26T16:40:15.642Z,78711.28
2022-08-26T16:42:47.934Z,78707.97
2022-08-26T16:50:16.629Z,78711.59
2022-08-26T16:52:46.750Z,78710.81
2022-08-26T16:55:21.567Z,78701.41
2022-08-26T16:57:52.732Z,78724.03
2022-08-26T17:00:29.718Z,78718.50
2022-08-26T17:03:01.812Z,78709.03
2022-08-26T17:05:32.218Z,78716.28
2022-08-26T17:08:02.428Z,78695.56
2022-08-26T17:10:33.749Z,78704.53
2022-08-26T17:13:04.809Z,78703.53
2022-08-26T17:15:40.640Z,78703.53
2022-08-26T17:18:10.469Z,78709.09
2022-08-26T17:20:46.112Z,78714.31
2022-08-26T17:23:19.250Z,78711.72
2022-08-26T17:25:49.674Z,78709.09
2022-08-26T17:28:20.060Z,78706.56
2022-08-26T17:30:49.916Z,78701.28
2022-08-26T17:33:22.064Z,78708.78
2022-08-26T17:35:55.721Z,78703.41
2022-08-26T17:38:26.241Z,78704.88
2022-08-26T17:40:56.671Z,78703.00
2022-08-26T17:43:28.013Z,78691.66
2022-08-26T17:46:06.889Z,78705.03
2022-08-26T17:48:40.003Z,78693.28
2022-08-26T17:51:13.547Z,78686.91
2022-08-26T17:53:48.346Z,78696.34
2022-08-26T17:56:31.001Z,78692.34
2022-08-26T17:59:02.284Z,78689.91
2022-08-26T18:01:37.346Z,78678.75
2022-08-26T18:04:09.133Z,78680.72
2022-08-26T18:06:41.103Z,78680.78
2022-08-26T18:09:11.947Z,78680.47
2022-08-26T18:11:50.084Z,78686.31
2022-08-26T18:14:20.607Z,78687.00
2022-08-26T18:16:50.273Z,78678.75
2022-08-26T18:19:20.063Z,78678.19
2022-08-26T18:21:50.327Z,78687.50
2022-08-26T18:24:20.648Z,78679.41
2022-08-26T18:26:53.315Z,78687.91
2022-08-26T18:29:23.295Z,78685.19
2022-08-26T18:31:54.107Z,78676.81
2022-08-26T18:34:23.712Z,78679.66
2022-08-26T18:37:01.651Z,78678.56
2022-08-26T18:39:33.040Z,78677.13
2022-08-26T18:42:06.585Z,78672.88
2022-08-26T18:44:36.691Z,78662.28
2022-08-26T18:47:06.183Z,78664.25
2022-08-26T18:49:36.463Z,78662.28
2022-08-26T18:52:06.625Z,78658.50
2022-08-26T18:54:37.061Z,78666.50
2022-08-26T18:57:07.248Z,78651.41
2022-08-26T18:59:37.108Z,78662.50
2022-08-26T19:02:09.154Z,78659.78
2022-08-26T19:04:42.660Z,78652.63
2022-08-26T19:07:19.710Z,78649.22
2022-08-26T19:09:49.876Z,78643.97
2022-08-26T19:12:26.890Z,78647.00
2022-08-26T19:14:57.003Z,78646.19
2022-08-26T19:17:27.050Z,78638.91
2022-08-26T19:19:56.602Z,78640.78
2022-08-26T19:22:26.403Z,78638.06
2022-08-26T19:24:56.237Z,78648.38
2022-08-26T19:27:25.936Z,78643.16
2022-08-26T19:29:55.801Z,78640.91
2022-08-26T19:32:26.607Z,78634.44
2022-08-26T19:34:56.528Z,78633.78
2022-08-26T19:37:26.272Z,78634.16
2022-08-26T19:39:55.933Z,78629.41
2022-08-26T19:42:25.450Z,78626.00
2022-08-26T19:45:24.548Z,78628.97
2022-08-26T19:47:55.156Z,78633.63
2022-08-26T19:50:26.811Z,78630.94
2022-08-26T19:52:56.786Z,78608.34
2022-08-26T19:55:27.680Z,78612.34
2022-08-26T19:57:57.801Z,78619.44
2022-08-26T20:00:30.836Z,78618.03
2022-08-26T20:03:01.110Z,78616.72
2022-08-26T20:05:30.658Z,78611.03
2022-08-26T20:08:00.418Z,78615.28
2022-08-26T20:10:30.328Z,78608.31
2022-08-26T20:13:00.642Z,78611.22
2022-08-26T20:15:30.801Z,78607.69
2022-08-26T20:18:00.249Z,78602.56
2022-08-26T20:20:48.593Z,78595.22
2022-08-26T20:23:19.434Z,78608.34
2022-08-26T20:25:49.013Z,78600.72
2022-08-26T20:28:19.588Z,78597.38
2022-08-26T20:30:49.202Z,78589.19
2022-08-26T20:33:18.636Z,78584.22
2022-08-26T20:35:48.295Z,78594.78
2022-08-26T20:38:21.332Z,78589.75
2022-08-26T20:40:52.023Z,78588.56
2022-08-26T20:43:26.432Z,78590.84
2022-08-26T20:45:55.681Z,78583.84
2022-08-26T20:48:25.254Z,78582.63
2022-08-26T20:51:00.533Z,78580.78
2022-08-26T20:53:31.223Z,78577.44
2022-08-26T20:56:07.519Z,78587.03
2022-08-26T20:58:37.774Z,78578.81
2022-08-26T21:01:08.970Z,78573.56
2022-08-26T21:03:38.636Z,78579.94
2022-08-26T21:06:08.589Z,78583.47
2022-08-26T21:08:42.535Z,78582.06
2022-08-26T21:11:13.019Z,78577.50
2022-08-26T21:14:03.900Z,78574.91
2022-08-26T21:16:33.225Z,78562.63
2022-08-26T21:19:03.459Z,78566.13
2022-08-26T21:21:33.790Z,78571.03
2022-08-26T21:24:04.021Z,78565.47
2022-08-26T21:26:34.411Z,78564.50
2022-08-26T21:29:06.440Z,78555.47
2022-08-26T21:31:36.055Z,78554.81
2022-08-26T21:34:05.547Z,78554.19
2022-08-26T21:36:35.226Z,78553.41
2022-08-26T21:39:10.764Z,78557.34
2022-08-26T21:41:43.218Z,78553.25
2022-08-26T21:44:14.693Z,78548.94
2022-08-26T21:46:45.768Z,78546.25
2022-08-26T21:49:17.248Z,78547.63
2022-08-26T21:51:49.609Z,78547.81
2022-08-26T21:54:20.036Z,78545.59
2022-08-26T21:56:49.911Z,78539.41
2022-08-26T21:59:21.245Z,78537.63
2022-08-26T22:01:51.467Z,78543.56
2022-08-26T22:04:22.297Z,78538.44
2022-08-26T22:06:54.900Z,78548.78
2022-08-26T22:09:27.699Z,78540.56
2022-08-26T22:12:00.323Z,78543.25
2022-08-26T22:14:31.079Z,78539.00
2022-08-26T22:17:01.447Z,78540.81
2022-08-26T22:19:34.102Z,78539.09
2022-08-26T22:22:16.781Z,78549.28
2022-08-26T22:24:46.878Z,78539.91
2022-08-26T22:27:16.432Z,78541.13
2022-08-26T22:29:48.230Z,78542.84
2022-08-26T22:32:19.790Z,78536.72
2022-08-26T22:34:49.927Z,78538.38
2022-08-26T22:37:19.300Z,78548.28
2022-08-26T22:39:49.092Z,78554.00
2022-08-26T22:42:18.933Z,78549.28
2022-08-26T22:44:48.484Z,78551.78
2022-08-26T22:47:17.980Z,78543.16
2022-08-26T22:49:48.599Z,78551.72
2022-08-26T22:52:18.467Z,78551.63
2022-08-26T22:54:50.218Z,78551.72
2022-08-26T22:57:22.079Z,78546.00
2022-08-26T22:59:51.981Z,78551.81
2022-08-26T23:02:21.494Z,78541.38
2022-08-26T23:04:52.015Z,78538.25
2022-08-26T23:07:21.373Z,78546.09
2022-08-26T23:09:50.654Z,78544.28
2022-08-26T23:12:20.713Z,78538.03
2022-08-26T23:14:50.471Z,78536.06
2022-08-26T23:17:19.769Z,78539.34
2022-08-26T23:19:49.204Z,78547.97
2022-08-26T23:22:19.059Z,78546.16
2022-08-26T23:24:48.330Z,78550.97
2022-08-26T23:27:18.236Z,78557.66
2022-08-26T23:29:47.689Z,78551.03
2022-08-26T23:32:17.191Z,78552.84
2022-08-26T23:35:02.365Z,78547.97
2022-08-26T23:37:39.666Z,78558.91
2022-08-26T23:40:17.471Z,78560.19
2022-08-26T23:42:47.089Z,78551.06
2022-08-26T23:45:19.713Z,78557.00
2022-08-26T23:47:51.734Z,78554.56
2022-08-26T23:50:25.369Z,78554.50
2022-08-26T23:53:06.975Z,78539.50
2022-08-26T23:55:38.875Z,78558.47
2022-08-26T23:58:08.805Z,78560.44
